Time;durP1;ratioP1;P1;durP2;ratioP2;P2;SDS_P1;SDS_P2;PMS_P1;PMS_P2;Temp;Humidity;BMP_temperature;BMP_pressure;BME280_temperature;BME280_humidity;BME280_pressure;Samples;Min_cycle;Max_cycle;Signal;HPM_P1;HPM_P2
2023/02/12 00:01:07;;;;;;;36.42;17.67;;;9.10;99.90;;;;;;5083409;28;20289;-74
2023/02/12 00:03:34;;;;;;;42.50;18.75;;;9.10;99.90;;;;;;5084467;28;20198;-75
2023/02/12 00:06:02;;;;;;;44.28;18.17;;;9.10;99.90;;;;;;5074964;28;20247;-76
2023/02/12 00:08:29;;;;;;;30.15;18.13;;;9.20;99.90;;;;;;5075805;28;20191;-77
2023/02/12 00:10:57;;;;;;;30.15;17.63;;;9.20;99.90;;;;;;5073880;28;20295;-74
2023/02/12 00:13:24;;;;;;;34.65;19.67;;;9.10;99.90;;;;;;5076625;28;20242;-75
2023/02/12 00:15:51;;;;;;;36.47;19.42;;;9.10;99.90;;;;;;5084351;28;20219;-75
2023/02/12 00:18:18;;;;;;;42.88;17.00;;;9.10;99.90;;;;;;5065554;28;20199;-75
2023/02/12 00:20:45;;;;;;;34.30;18.52;;;9.10;99.90;;;;;;5074128;28;20252;-76
2023/02/12 00:23:12;;;;;;;35.35;20.17;;;9.10;99.90;;;;;;5073167;28;20192;-74
2023/02/12 00:25:41;;;;;;;30.13;17.75;;;9.20;99.90;;;;;;5068129;28;20207;-74
2023/02/12 00:28:10;;;;;;;29.58;17.42;;;9.10;99.90;;;;;;5076465;28;20631;-75
2023/02/12 00:30:37;;;;;;;39.35;20.13;;;9.10;99.90;;;;;;5071304;28;20409;-77
2023/02/12 00:33:04;;;;;;;38.40;18.77;;;9.00;99.90;;;;;;5074038;28;20202;-78
2023/02/12 00:35:31;;;;;;;31.48;17.27;;;9.00;99.90;;;;;;5070921;28;20618;-75
2023/02/12 00:37:58;;;;;;;34.33;17.85;;;9.10;99.90;;;;;;5074825;28;20614;-76
2023/02/12 00:40:26;;;;;;;37.70;19.77;;;9.10;99.90;;;;;;5071194;28;20191;-75
2023/02/12 00:42:53;;;;;;;35.97;18.00;;;9.10;99.90;;;;;;5079765;28;20199;-75
2023/02/12 00:45:21;;;;;;;38.10;20.90;;;9.10;99.90;;;;;;5075968;28;20237;-74
2023/02/12 00:47:48;;;;;;;37.28;18.48;;;9.10;99.90;;;;;;5065466;28;20283;-76
2023/02/12 00:50:15;;;;;;;40.53;19.58;;;9.10;99.90;;;;;;5068969;28;20217;-75
2023/02/12 00:52:42;;;;;;;36.08;19.77;;;9.10;99.90;;;;;;5070575;28;20199;-76
2023/02/12 00:55:09;;;;;;;37.72;19.40;;;9.10;99.90;;;;;;5073745;28;20254;-75
2023/02/12 00:57:37;;;;;;;28.65;18.27;;;9.10;99.90;;;;;;5074707;28;20234;-75
2023/02/12 01:00:05;;;;;;;38.00;21.30;;;9.10;99.90;;;;;;5071303;28;20223;-73
2023/02/12 01:05:58;;;;;;;33.25;19.63;;;9.10;99.90;;;;;;5077503;28;20240;-73
2023/02/12 01:08:25;;;;;;;32.03;21.50;;;9.10;99.90;;;;;;5066540;28;20361;-74
2023/02/12 01:10:56;;;;;;;41.80;23.27;;;9.10;99.90;;;;;;5074305;28;20731;-75
2023/02/12 01:13:24;;;;;;;46.17;22.77;;;9.00;99.90;;;;;;5072170;28;20199;-76
2023/02/12 01:16:02;;;;;;;44.00;21.45;;;9.00;99.90;;;;;;5070978;28;20223;-75
2023/02/12 01:18:28;;;;;;;48.42;23.25;;;9.00;99.90;;;;;;5067144;28;20243;-74
2023/02/12 01:20:57;;;;;;;40.47;22.05;;;9.00;99.90;;;;;;5064839;28;20242;-77
2023/02/12 01:23:25;;;;;;;38.88;22.02;;;9.00;99.90;;;;;;5074035;28;20237;-75
2023/02/12 01:25:52;;;;;;;45.55;25.30;;;9.00;99.90;;;;;;5072242;28;20214;-74
2023/02/12 01:28:19;;;;;;;45.80;26.40;;;9.10;99.90;;;;;;5072038;28;20293;-77
2023/02/12 01:30:47;;;;;;;37.38;23.23;;;9.00;99.90;;;;;;5063614;28;20219;-76
2023/02/12 01:33:13;;;;;;;35.83;22.77;;;9.10;99.90;;;;;;5071473;28;20231;-76
2023/02/12 01:35:41;;;;;;;39.42;23.35;;;9.10;99.90;;;;;;5070695;28;20331;-76
2023/02/12 01:38:09;;;;;;;32.15;20.23;;;9.00;99.90;;;;;;5068256;28;20199;-74
2023/02/12 01:40:37;;;;;;;35.33;21.63;;;8.90;99.90;;;;;;5068295;28;20331;-75
2023/02/12 01:43:04;;;;;;;42.22;23.33;;;8.80;99.90;;;;;;5072951;28;20199;-75
2023/02/12 01:45:55;;;;;;;40.40;21.40;;;8.80;99.90;;;;;;5063677;28;20597;-73
2023/02/12 01:48:25;;;;;;;37.58;20.73;;;8.80;99.90;;;;;;5073375;28;20191;-73
2023/02/12 01:50:54;;;;;;;45.05;21.02;;;8.80;99.90;;;;;;5072202;28;20282;-75
2023/02/12 01:53:24;;;;;;;33.50;20.58;;;8.90;99.90;;;;;;5071294;28;20238;-75
2023/02/12 01:55:58;;;;;;;35.25;20.50;;;8.80;99.90;;;;;;5070189;28;20729;-74
2023/02/12 01:58:29;;;;;;;31.58;21.58;;;8.80;99.90;;;;;;5073113;28;20734;-73
2023/02/12 02:01:00;;;;;;;34.47;20.30;;;8.80;99.90;;;;;;5055902;28;20192;-76
2023/02/12 02:03:27;;;;;;;30.23;18.67;;;8.80;99.90;;;;;;5063778;28;20234;-76
2023/02/12 02:06:02;;;;;;;38.80;20.40;;;8.80;99.90;;;;;;5073537;28;20257;-74
2023/02/12 02:08:31;;;;;;;35.65;20.98;;;8.80;99.90;;;;;;5072653;28;20199;-74
2023/02/12 02:10:58;;;;;;;34.58;20.95;;;8.80;99.90;;;;;;5072456;28;20599;-75
2023/02/12 02:16:17;;;;;;;36.28;22.77;;;8.80;99.90;;;;;;5072867;28;20229;-75
2023/02/12 02:18:51;;;;;;;36.97;19.70;;;8.80;99.90;;;;;;5072175;28;20194;-74
2023/02/12 02:21:57;;;;;;;29.15;19.08;;;8.80;99.90;;;;;;5070541;28;20637;-75
2023/02/12 02:25:01;;;;;;;40.58;22.48;;;8.80;99.90;;;;;;5054967;28;20208;-76
2023/02/12 02:27:40;;;;;;;36.08;20.13;;;8.70;99.90;;;;;;5072295;28;20278;-76
2023/02/12 02:30:25;;;;;;;39.10;20.25;;;8.70;99.90;;;;;;5072172;28;20226;-76
2023/02/12 02:32:58;;;;;;;40.72;21.67;;;8.60;99.90;;;;;;5071496;28;20233;-76
2023/02/12 02:35:32;;;;;;;36.10;19.25;;;8.50;99.90;;;;;;5071057;28;20226;-76
2023/02/12 02:38:09;;;;;;;32.63;20.88;;;8.50;99.90;;;;;;5070796;28;20195;-78
2023/02/12 02:40:44;;;;;;;36.50;21.15;;;8.50;99.90;;;;;;5071820;28;20344;-75
2023/02/12 02:43:19;;;;;;;58.95;26.70;;;8.60;99.90;;;;;;5068519;28;20198;-76
2023/02/12 02:45:50;;;;;;;44.17;21.50;;;8.50;99.90;;;;;;5063270;28;20213;-76
2023/02/12 02:48:25;;;;;;;45.08;25.55;;;8.50;99.90;;;;;;5066859;28;20298;-75
2023/02/12 02:51:07;;;;;;;56.72;24.52;;;8.50;99.90;;;;;;5065452;28;20282;-74
2023/02/12 02:53:39;;;;;;;58.97;27.85;;;8.50;99.90;;;;;;5070255;28;20268;-74
2023/02/12 02:56:12;;;;;;;53.38;24.67;;;8.40;99.90;;;;;;5072082;28;20246;-74
2023/02/12 02:58:43;;;;;;;50.95;25.27;;;8.40;99.90;;;;;;5065523;28;20233;-76
2023/02/12 03:01:17;;;;;;;58.17;27.70;;;8.40;99.90;;;;;;5066196;28;20614;-74
2023/02/12 03:03:50;;;;;;;54.83;27.25;;;8.30;99.90;;;;;;5075919;28;20263;-74
2023/02/12 03:06:25;;;;;;;61.33;27.60;;;8.40;99.90;;;;;;5073290;28;20661;-74
2023/02/12 03:08:56;;;;;;;44.60;25.63;;;8.40;99.90;;;;;;5070940;28;20701;-75
2023/02/12 03:11:26;;;;;;;51.20;23.02;;;8.40;99.90;;;;;;5067052;28;20290;-75
2023/02/12 03:13:57;;;;;;;46.50;25.13;;;8.40;99.90;;;;;;5065962;28;20191;-76
2023/02/12 03:16:29;;;;;;;55.35;26.10;;;8.30;99.90;;;;;;5069087;28;20287;-76
2023/02/12 03:19:02;;;;;;;46.78;24.55;;;8.30;99.90;;;;;;5070860;28;20195;-75
2023/02/12 03:21:33;;;;;;;45.53;24.60;;;8.40;99.90;;;;;;5069927;28;20311;-74
2023/02/12 03:24:05;;;;;;;45.70;25.45;;;8.30;99.90;;;;;;5068705;28;20272;-76
2023/02/12 03:26:38;;;;;;;64.20;25.67;;;8.30;99.90;;;;;;5066183;28;20207;-75
2023/02/12 03:29:05;;;;;;;49.22;25.88;;;8.30;99.90;;;;;;5063838;28;20553;-74
2023/02/12 03:31:43;;;;;;;51.83;23.40;;;8.30;99.90;;;;;;5067005;28;20231;-74
2023/02/12 03:34:19;;;;;;;54.10;25.70;;;8.20;99.90;;;;;;5078121;28;20699;-75
2023/02/12 03:36:51;;;;;;;39.83;22.63;;;8.20;99.90;;;;;;5070044;28;20305;-76
2023/02/12 03:39:29;;;;;;;47.50;23.02;;;8.10;99.90;;;;;;5076375;28;20277;-76
2023/02/12 03:42:01;;;;;;;46.38;23.95;;;8.10;99.90;;;;;;5070698;28;20243;-75
2023/02/12 03:44:43;;;;;;;43.28;23.33;;;8.20;99.90;;;;;;5074957;28;20195;-73
2023/02/12 03:47:20;;;;;;;46.75;23.67;;;8.10;99.90;;;;;;5067714;28;20219;-77
2023/02/12 03:49:53;;;;;;;46.00;24.05;;;8.10;99.90;;;;;;5074738;28;20202;-74
2023/02/12 03:52:21;;;;;;;45.70;24.77;;;8.10;99.90;;;;;;5083195;28;20190;-75
2023/02/12 03:54:48;;;;;;;40.20;23.25;;;8.10;99.90;;;;;;5072313;28;20198;-75
2023/02/12 03:57:19;;;;;;;48.42;25.90;;;8.10;99.90;;;;;;5078298;28;20214;-76
2023/02/12 03:59:46;;;;;;;54.72;25.98;;;8.20;99.90;;;;;;5076446;28;20252;-74
2023/02/12 04:02:16;;;;;;;53.90;25.00;;;8.10;99.90;;;;;;5076164;28;20234;-76
2023/02/12 04:04:44;;;;;;;51.25;24.25;;;8.20;99.90;;;;;;5065285;28;20195;-75
2023/02/12 04:07:12;;;;;;;48.55;25.08;;;8.10;99.90;;;;;;5064600;28;20223;-75
2023/02/12 04:09:39;;;;;;;56.67;25.67;;;8.20;99.90;;;;;;5069115;28;20657;-75
2023/02/12 04:12:25;;;;;;;56.05;23.98;;;8.20;99.90;;;;;;5071768;28;20278;-73
2023/02/12 04:14:58;;;;;;;45.85;22.95;;;8.20;99.90;;;;;;5071118;28;20225;-75
2023/02/12 04:17:39;;;;;;;52.58;26.08;;;8.20;99.90;;;;;;5072341;28;20207;-75
2023/02/12 04:20:16;;;;;;;51.05;24.65;;;8.30;99.90;;;;;;5075721;28;20206;-74
2023/02/12 04:25:42;;;;;;;42.80;24.30;;;8.30;99.90;;;;;;5075729;28;20264;-75
2023/02/12 04:28:17;;;;;;;36.72;21.08;;;8.40;99.90;;;;;;5067099;28;20273;-75
2023/02/12 04:30:52;;;;;;;51.17;24.02;;;8.40;99.90;;;;;;5072009;28;20233;-74
2023/02/12 04:33:24;;;;;;;48.20;23.00;;;8.40;99.90;;;;;;5077477;28;20208;-74
2023/02/12 04:35:55;;;;;;;46.55;21.88;;;8.40;99.90;;;;;;5069204;28;20726;-74
2023/02/12 04:38:28;;;;;;;42.85;25.17;;;8.40;99.90;;;;;;5071811;28;20280;-75
2023/02/12 04:40:59;;;;;;;46.78;23.13;;;8.40;99.90;;;;;;5069037;28;20286;-77
2023/02/12 04:43:30;;;;;;;40.90;20.95;;;8.40;99.90;;;;;;5074172;28;20614;-74
2023/02/12 04:45:59;;;;;;;44.00;23.08;;;8.60;99.90;;;;;;5069007;28;20216;-74
2023/02/12 04:48:27;;;;;;;45.72;25.27;;;8.60;99.90;;;;;;5070839;28;20227;-76
2023/02/12 04:50:56;;;;;;;41.05;23.52;;;8.60;99.90;;;;;;5069220;28;20268;-76
2023/02/12 04:53:23;;;;;;;45.80;24.38;;;8.60;99.90;;;;;;5072442;28;20281;-72
2023/02/12 04:55:51;;;;;;;51.95;26.65;;;8.60;99.90;;;;;;5074272;28;20220;-74
2023/02/12 04:58:18;;;;;;;55.15;26.75;;;8.60;99.90;;;;;;5073947;28;20183;-75
2023/02/12 05:00:48;;;;;;;42.95;23.25;;;8.60;99.90;;;;;;5074580;28;20231;-74
2023/02/12 05:03:16;;;;;;;43.70;23.23;;;8.60;99.90;;;;;;5068480;28;20202;-75
2023/02/12 05:05:45;;;;;;;57.60;27.55;;;8.60;99.90;;;;;;5072633;28;20249;-74
2023/02/12 05:08:12;;;;;;;56.35;23.73;;;8.60;99.90;;;;;;5074115;28;20720;-77
2023/02/12 05:10:39;;;;;;;56.80;26.52;;;8.60;99.90;;;;;;5077611;28;20241;-73
2023/02/12 05:13:06;;;;;;;43.83;24.27;;;8.60;99.90;;;;;;5072299;28;20282;-75
2023/02/12 05:15:33;;;;;;;46.90;21.73;;;8.60;99.90;;;;;;5077258;28;20272;-73
2023/02/12 05:18:00;;;;;;;63.17;24.67;;;8.60;99.90;;;;;;5082751;28;20206;-73
2023/02/12 05:20:27;;;;;;;64.38;25.80;;;8.60;99.90;;;;;;5077678;28;20653;-76
2023/02/12 05:22:55;;;;;;;60.25;26.02;;;8.50;99.90;;;;;;5074786;28;20195;-75
2023/02/12 05:25:22;;;;;;;57.40;25.15;;;8.50;99.90;;;;;;5071663;28;21535;-78
2023/02/12 05:27:50;;;;;;;68.88;25.05;;;8.50;99.90;;;;;;5070508;28;20209;-74
2023/02/12 05:30:17;;;;;;;85.53;28.55;;;8.60;99.90;;;;;;5066774;28;20214;-75
2023/02/12 05:32:44;;;;;;;51.60;24.42;;;8.50;99.90;;;;;;5068059;28;20294;-75
2023/02/12 05:35:11;;;;;;;67.20;26.27;;;8.40;99.90;;;;;;5071301;28;20215;-74
2023/02/12 05:37:38;;;;;;;64.03;26.58;;;8.40;99.90;;;;;;5072956;28;20296;-73
2023/02/12 05:40:08;;;;;;;75.80;28.45;;;8.30;99.90;;;;;;5067707;28;20206;-75
2023/02/12 05:42:35;;;;;;;90.10;28.52;;;8.30;99.90;;;;;;5071390;28;20676;-75
2023/02/12 05:45:02;;;;;;;76.35;27.67;;;8.30;99.90;;;;;;5065775;28;20282;-75
2023/02/12 05:47:32;;;;;;;60.92;26.55;;;8.20;99.90;;;;;;5071326;28;20275;-76
2023/02/12 05:49:59;;;;;;;64.50;25.60;;;8.20;99.90;;;;;;5073173;28;20579;-75
2023/02/12 05:52:26;;;;;;;91.38;32.28;;;8.20;99.90;;;;;;5077756;28;20225;-74
2023/02/12 05:54:53;;;;;;;71.22;26.95;;;8.10;99.90;;;;;;5073257;28;20244;-74
2023/02/12 05:57:21;;;;;;;80.05;30.45;;;8.10;99.90;;;;;;5073037;28;20546;-75
2023/02/12 05:59:48;;;;;;;68.80;26.25;;;8.10;99.90;;;;;;5069564;28;20595;-74
2023/02/12 06:02:15;;;;;;;62.08;26.65;;;8.10;99.90;;;;;;5069123;28;20234;-74
2023/02/12 06:04:42;;;;;;;68.00;28.08;;;8.20;99.90;;;;;;5071619;28;20199;-74
2023/02/12 06:07:09;;;;;;;53.42;25.17;;;8.20;99.90;;;;;;5073022;28;20222;-75
2023/02/12 06:09:37;;;;;;;64.57;27.08;;;8.30;99.90;;;;;;5074917;28;20205;-73
2023/02/12 06:12:04;;;;;;;75.40;28.30;;;8.30;99.90;;;;;;5073040;28;20281;-74
2023/02/12 06:14:32;;;;;;;76.47;28.98;;;8.30;99.90;;;;;;5072786;28;20351;-76
2023/02/12 06:16:59;;;;;;;54.08;25.80;;;8.40;99.90;;;;;;5071010;28;20306;-77
2023/02/12 06:19:26;;;;;;;57.75;26.15;;;8.40;99.90;;;;;;5062562;28;20245;-76
2023/02/12 06:21:53;;;;;;;98.80;31.38;;;8.40;99.90;;;;;;5069165;28;20191;-75
2023/02/12 06:24:20;;;;;;;66.10;28.55;;;8.30;99.90;;;;;;5063087;28;20194;-74
2023/02/12 06:26:50;;;;;;;94.80;29.95;;;8.40;99.90;;;;;;5071929;28;20582;-73
2023/02/12 06:29:17;;;;;;;84.78;31.25;;;8.20;99.90;;;;;;5069296;28;20202;-74
2023/02/12 06:31:46;;;;;;;92.07;32.15;;;8.20;99.90;;;;;;5072361;28;20221;-74
2023/02/12 06:34:19;;;;;;;73.22;30.27;;;8.20;99.90;;;;;;5072141;28;20191;-75
2023/02/12 06:36:47;;;;;;;110.82;36.65;;;8.30;99.90;;;;;;5072308;28;20309;-74
2023/02/12 06:39:15;;;;;;;102.25;31.02;;;8.30;99.90;;;;;;5068381;28;20630;-74
2023/02/12 06:41:42;;;;;;;94.75;31.75;;;8.30;99.90;;;;;;5072018;28;20278;-76
2023/02/12 06:44:12;;;;;;;61.28;26.88;;;8.20;99.90;;;;;;5063899;28;20194;-75
2023/02/12 06:46:39;;;;;;;122.18;33.92;;;8.30;99.90;;;;;;5068020;28;20218;-73
2023/02/12 06:49:07;;;;;;;90.20;33.00;;;8.30;99.90;;;;;;5066191;28;20194;-73
2023/02/12 06:51:35;;;;;;;96.70;33.38;;;8.30;99.90;;;;;;5067864;28;20238;-73
2023/02/12 06:54:02;;;;;;;134.52;36.72;;;8.30;99.90;;;;;;5067358;28;20221;-75
2023/02/12 06:56:29;;;;;;;99.90;33.15;;;8.30;99.90;;;;;;5064868;28;20302;-75
2023/02/12 06:58:58;;;;;;;86.28;32.65;;;8.30;99.90;;;;;;5068541;28;20548;-75
2023/02/12 07:01:27;;;;;;;104.70;33.92;;;8.30;99.90;;;;;;5070612;28;20191;-73
2023/02/12 07:03:56;;;;;;;91.03;30.52;;;8.30;99.90;;;;;;5069691;28;20547;-75
2023/02/12 07:06:26;;;;;;;97.00;32.17;;;8.30;99.90;;;;;;5066833;28;20218;-75
2023/02/12 07:08:54;;;;;;;55.28;26.88;;;8.30;99.90;;;;;;5061946;28;20218;-73
2023/02/12 07:11:24;;;;;;;99.43;34.20;;;8.50;99.90;;;;;;5074357;28;20312;-75
2023/02/12 07:13:51;;;;;;;80.28;28.83;;;8.40;99.90;;;;;;5072529;28;20195;-74
2023/02/12 07:16:18;;;;;;;58.17;26.95;;;8.50;99.90;;;;;;5072160;28;20294;-75
2023/02/12 07:18:45;;;;;;;81.00;28.13;;;8.40;99.90;;;;;;5072565;28;20210;-75
2023/02/12 07:21:14;;;;;;;91.75;31.55;;;8.30;99.90;;;;;;5067746;28;20293;-77
2023/02/12 07:23:45;;;;;;;71.78;28.35;;;8.30;99.90;;;;;;5076969;28;20219;-74
2023/02/12 07:26:13;;;;;;;82.78;30.70;;;8.20;99.90;;;;;;5071217;28;20297;-74
2023/02/12 07:28:41;;;;;;;78.15;28.75;;;8.20;99.90;;;;;;5072080;28;20253;-72
2023/02/12 07:31:09;;;;;;;54.97;26.35;;;8.20;99.90;;;;;;5071046;28;20294;-74
2023/02/12 07:33:37;;;;;;;73.68;26.48;;;8.20;99.90;;;;;;5070479;28;20655;-74
2023/02/12 07:36:06;;;;;;;84.60;31.55;;;8.30;99.90;;;;;;5066918;28;20523;-74
2023/02/12 07:38:35;;;;;;;82.10;31.38;;;8.20;99.90;;;;;;5069652;28;20317;-74
2023/02/12 07:41:14;;;;;;;87.15;28.67;;;8.20;99.90;;;;;;5068698;28;20282;-74
2023/02/12 07:43:42;;;;;;;75.15;30.02;;;8.30;99.90;;;;;;5071184;28;20661;-75
2023/02/12 07:46:11;;;;;;;95.18;29.77;;;8.30;99.90;;;;;;5070828;28;20218;-75
2023/02/12 07:48:38;;;;;;;98.43;29.92;;;8.30;99.90;;;;;;5074105;28;20230;-73
2023/02/12 07:51:07;;;;;;;87.47;29.23;;;8.30;99.90;;;;;;5082349;28;20238;-74
2023/02/12 07:53:35;;;;;;;79.32;29.08;;;8.30;99.90;;;;;;5085387;28;20230;-76
2023/02/12 07:56:06;;;;;;;85.75;29.17;;;8.20;99.90;;;;;;5081079;28;20211;-75
2023/02/12 07:58:35;;;;;;;83.85;28.05;;;8.20;99.90;;;;;;5075529;28;20219;-71
2023/02/12 08:01:16;;;;;;;70.75;31.77;;;8.30;99.90;;;;;;5076001;28;20274;-71
2023/02/12 08:03:43;;;;;;;70.03;25.83;;;8.30;99.90;;;;;;5079552;28;20190;-72
2023/02/12 08:06:12;;;;;;;81.68;28.65;;;8.20;99.90;;;;;;5079531;28;20253;-74
2023/02/12 08:08:39;;;;;;;51.03;23.60;;;8.30;99.90;;;;;;5068635;28;20199;-73
2023/02/12 08:11:07;;;;;;;66.75;26.08;;;8.30;99.90;;;;;;5072437;28;20198;-76
2023/02/12 08:13:36;;;;;;;60.00;27.90;;;8.30;99.90;;;;;;5065589;28;20237;-74
2023/02/12 08:16:06;;;;;;;48.67;23.67;;;8.40;99.90;;;;;;5077874;28;20268;-73
2023/02/12 08:18:34;;;;;;;47.28;21.65;;;8.50;99.90;;;;;;5072429;28;20698;-73
2023/02/12 08:21:05;;;;;;;51.40;24.90;;;8.50;99.90;;;;;;5070263;28;20203;-73
2023/02/12 08:23:32;;;;;;;72.28;25.05;;;8.50;99.90;;;;;;5072567;28;20234;-74
2023/02/12 08:26:11;;;;;;;58.10;24.80;;;8.50;99.90;;;;;;5073447;28;20305;-75
2023/02/12 08:28:42;;;;;;;71.07;35.88;;;8.50;99.90;;;;;;5084033;28;20293;-71
2023/02/12 08:31:11;;;;;;;43.58;20.70;;;8.60;99.90;;;;;;5083731;28;20199;-75
2023/02/12 08:33:38;;;;;;;34.67;19.88;;;8.60;99.90;;;;;;5079427;28;20293;-77
2023/02/12 08:36:08;;;;;;;55.33;24.40;;;8.60;99.90;;;;;;5071965;28;20298;-76
2023/02/12 08:38:36;;;;;;;43.88;22.25;;;8.60;99.90;;;;;;5073219;28;20255;-74
2023/02/12 08:41:03;;;;;;;40.83;21.80;;;8.60;99.90;;;;;;5075198;28;20300;-74
2023/02/12 08:43:30;;;;;;;49.35;21.20;;;8.60;99.90;;;;;;5078568;28;20278;-72
2023/02/12 08:46:04;;;;;;;32.95;19.83;;;8.60;99.90;;;;;;5082414;28;20585;-76
2023/02/12 08:48:31;;;;;;;39.80;18.45;;;8.80;99.90;;;;;;5069516;28;20191;-75
2023/02/12 08:51:05;;;;;;;27.75;16.05;;;8.70;99.90;;;;;;5074778;28;20256;-72
2023/02/12 08:53:32;;;;;;;29.05;15.30;;;8.90;99.90;;;;;;5077203;28;20270;-74
2023/02/12 08:56:06;;;;;;;25.70;13.95;;;8.90;99.90;;;;;;5077497;28;20211;-76
2023/02/12 08:58:33;;;;;;;27.95;15.63;;;8.90;99.90;;;;;;5075621;28;20253;-75
2023/02/12 09:01:00;;;;;;;34.45;19.45;;;8.90;99.90;;;;;;5064708;28;20199;-75
2023/02/12 09:03:28;;;;;;;22.73;13.70;;;9.20;99.90;;;;;;5077344;28;20224;-75
2023/02/12 09:05:57;;;;;;;22.63;13.63;;;9.20;99.90;;;;;;5070426;28;20303;-74
2023/02/12 09:08:24;;;;;;;15.50;11.68;;;9.10;99.90;;;;;;5071772;28;20195;-74
2023/02/12 09:10:53;;;;;;;20.15;12.45;;;9.20;99.90;;;;;;5077448;28;20204;-75
2023/02/12 09:13:19;;;;;;;16.77;10.57;;;9.40;99.90;;;;;;5065423;28;20211;-74
2023/02/12 09:15:46;;;;;;;15.35;11.13;;;9.60;99.90;;;;;;5074307;28;20690;-75
2023/02/12 09:18:14;;;;;;;14.60;9.20;;;9.70;99.90;;;;;;5063926;28;20244;-75
2023/02/12 09:20:44;;;;;;;18.65;12.07;;;9.70;99.90;;;;;;5070803;28;20204;-76
2023/02/12 09:23:14;;;;;;;12.45;8.05;;;9.80;99.90;;;;;;5070046;28;20298;-75
2023/02/12 09:25:44;;;;;;;12.13;8.52;;;10.00;99.90;;;;;;5064422;28;20298;-74
2023/02/12 09:28:12;;;;;;;13.68;8.05;;;10.10;99.90;;;;;;5070120;28;20249;-72
2023/02/12 09:30:39;;;;;;;13.10;10.23;;;9.90;99.90;;;;;;5068437;28;20199;-74
2023/02/12 09:33:07;;;;;;;12.80;9.15;;;9.90;99.90;;;;;;5068436;28;20196;-74
2023/02/12 09:35:35;;;;;;;12.27;8.70;;;9.80;99.90;;;;;;5071599;28;20220;-74
2023/02/12 09:38:03;;;;;;;11.50;7.95;;;9.70;99.90;;;;;;5069610;28;20209;-74
2023/02/12 09:40:39;;;;;;;8.55;6.40;;;10.00;99.90;;;;;;5071139;28;20288;-71
2023/02/12 09:43:18;;;;;;;10.98;8.70;;;10.10;99.90;;;;;;5071797;28;20232;-72
2023/02/12 09:45:53;;;;;;;11.88;8.13;;;10.20;99.90;;;;;;5067676;28;20563;-73
2023/02/12 09:48:45;;;;;;;10.95;8.35;;;10.30;99.90;;;;;;5069252;28;20298;-71
2023/02/12 09:51:14;;;;;;;10.82;7.28;;;10.40;99.90;;;;;;5059550;28;20204;-76
2023/02/12 09:53:46;;;;;;;14.25;9.82;;;10.00;99.90;;;;;;5068831;28;20598;-71
2023/02/12 09:56:17;;;;;;;11.23;7.57;;;10.00;99.90;;;;;;5078967;28;20252;-73
2023/02/12 09:58:47;;;;;;;9.85;8.02;;;10.00;99.90;;;;;;5070253;28;20544;-72
2023/02/12 10:01:17;;;;;;;14.05;8.65;;;10.10;99.90;;;;;;5074952;28;20558;-72
2023/02/12 10:03:44;;;;;;;11.80;8.73;;;9.90;99.90;;;;;;5073218;28;20225;-73
2023/02/12 10:06:16;;;;;;;12.25;8.40;;;9.80;99.90;;;;;;5068710;28;20552;-72
2023/02/12 10:09:06;;;;;;;11.38;8.10;;;9.70;99.90;;;;;;5074999;28;20204;-75
2023/02/12 10:11:47;;;;;;;15.50;10.35;;;9.60;99.90;;;;;;5068210;28;20216;-73
2023/02/12 10:14:43;;;;;;;14.63;9.57;;;9.50;99.90;;;;;;5066614;28;20219;-73
2023/02/12 10:17:19;;;;;;;12.98;9.23;;;9.60;99.90;;;;;;5069308;28;20231;-73
2023/02/12 10:20:05;;;;;;;16.50;10.00;;;9.60;99.90;;;;;;5063610;28;20277;-73
2023/02/12 10:22:42;;;;;;;14.15;8.73;;;9.60;99.90;;;;;;5070959;28;20204;-75
2023/02/12 10:25:23;;;;;;;12.48;9.23;;;9.80;99.90;;;;;;5061223;28;20263;-74
2023/02/12 10:27:52;;;;;;;12.50;7.70;;;9.80;99.90;;;;;;5055773;28;20188;-74
2023/02/12 10:30:25;;;;;;;11.45;8.18;;;9.90;99.90;;;;;;5068970;28;20193;-73
2023/02/12 10:32:58;;;;;;;13.77;8.00;;;9.90;99.90;;;;;;5063644;28;20231;-72
2023/02/12 10:35:26;;;;;;;12.95;8.60;;;9.90;99.90;;;;;;5065722;28;20562;-73
2023/02/12 10:38:00;;;;;;;12.73;7.90;;;9.90;99.90;;;;;;5072199;28;20223;-73
2023/02/12 10:40:32;;;;;;;13.35;8.88;;;9.80;99.90;;;;;;5069955;28;20679;-72
2023/02/12 10:43:01;;;;;;;11.82;8.40;;;9.90;99.90;;;;;;5071705;28;20235;-72
2023/02/12 10:45:31;;;;;;;8.55;7.50;;;9.80;99.90;;;;;;5068386;28;20650;-74
2023/02/12 10:48:09;;;;;;;12.30;8.00;;;9.90;99.90;;;;;;5075709;28;20201;-74
2023/02/12 10:50:51;;;;;;;11.25;7.70;;;9.90;99.90;;;;;;5071276;28;20201;-73
2023/02/12 10:53:22;;;;;;;12.88;8.75;;;10.00;99.90;;;;;;5069841;28;20201;-74
2023/02/12 10:56:04;;;;;;;10.70;7.43;;;10.00;99.90;;;;;;5077002;28;20224;-75
2023/02/12 10:58:31;;;;;;;10.38;7.00;;;10.00;99.90;;;;;;5072148;28;20216;-75
2023/02/12 11:00:59;;;;;;;13.02;7.80;;;9.90;99.90;;;;;;5072658;28;20710;-74
2023/02/12 11:03:32;;;;;;;8.75;6.53;;;9.80;99.90;;;;;;5076947;28;20243;-74
2023/02/12 11:06:13;;;;;;;10.07;6.15;;;9.90;99.90;;;;;;5073934;28;20227;-74
2023/02/12 11:08:41;;;;;;;10.20;6.95;;;9.90;99.90;;;;;;5071329;28;20195;-72
2023/02/12 11:11:12;;;;;;;9.90;6.50;;;9.80;99.90;;;;;;5078916;28;20199;-74
2023/02/12 11:13:41;;;;;;;12.32;7.35;;;9.80;99.90;;;;;;5080427;28;20570;-73
2023/02/12 11:16:08;;;;;;;10.38;7.35;;;9.90;99.90;;;;;;5072884;28;20319;-75
2023/02/12 11:18:36;;;;;;;11.07;8.27;;;9.80;99.90;;;;;;5072592;28;20648;-74
2023/02/12 11:21:05;;;;;;;13.57;8.88;;;9.70;99.90;;;;;;5067533;28;20235;-73
2023/02/12 11:23:34;;;;;;;13.80;8.73;;;9.70;99.90;;;;;;5081566;28;20195;-74
2023/02/12 11:26:03;;;;;;;9.00;6.82;;;9.70;99.90;;;;;;5083076;28;20223;-73
2023/02/12 11:28:34;;;;;;;8.65;6.05;;;9.70;99.90;;;;;;5076618;28;20203;-74
2023/02/12 11:31:04;;;;;;;9.15;6.82;;;9.70;99.90;;;;;;5075250;28;20241;-75
2023/02/12 11:33:34;;;;;;;7.85;6.45;;;9.80;99.90;;;;;;5075868;28;20194;-75
2023/02/12 11:36:04;;;;;;;11.75;6.00;;;9.90;99.90;;;;;;5063639;28;20220;-75
2023/02/12 11:38:34;;;;;;;5.50;4.85;;;10.10;99.90;;;;;;5077447;28;20204;-75
2023/02/12 11:41:23;;;;;;;5.68;4.70;;;10.10;99.90;;;;;;5075983;28;20195;-75
2023/02/12 11:43:52;;;;;;;6.55;4.90;;;10.20;99.90;;;;;;5076985;28;20207;-74
2023/02/12 11:46:24;;;;;;;4.88;4.32;;;10.30;99.90;;;;;;5073440;28;20746;-75
2023/02/12 11:48:52;;;;;;;5.53;5.03;;;10.40;99.90;;;;;;5080530;28;20190;-74
2023/02/12 11:51:23;;;;;;;5.68;5.13;;;10.40;99.90;;;;;;5076838;28;20196;-75
2023/02/12 11:53:52;;;;;;;7.25;5.50;;;10.40;99.90;;;;;;5075982;28;20198;-77
2023/02/12 11:56:21;;;;;;;5.65;4.28;;;10.40;99.90;;;;;;5076108;28;20365;-78
2023/02/12 11:58:49;;;;;;;6.78;5.68;;;10.30;99.90;;;;;;5065514;28;20214;-73
2023/02/12 12:01:20;;;;;;;8.20;5.80;;;10.50;99.90;;;;;;5082826;28;20204;-77
2023/02/12 12:03:56;;;;;;;5.33;4.57;;;10.50;99.90;;;;;;5075434;28;20795;-74
2023/02/12 12:06:32;;;;;;;7.90;5.40;;;10.30;99.90;;;;;;5076208;28;20463;-72
2023/02/12 12:09:05;;;;;;;7.63;5.50;;;10.30;99.90;;;;;;5090437;28;20267;-74
2023/02/12 12:11:43;;;;;;;8.20;6.65;;;10.10;99.90;;;;;;5076075;28;20199;-72
2023/02/12 12:14:20;;;;;;;10.80;7.95;;;10.10;99.90;;;;;;5074040;28;20195;-75
2023/02/12 12:19:53;;;;;;;10.50;8.27;;;10.20;99.90;;;;;;5074597;28;20354;-75
2023/02/12 12:22:42;;;;;;;14.43;9.10;;;10.40;99.90;;;;;;5074874;28;20295;-74
2023/02/12 12:25:18;;;;;;;11.23;9.15;;;10.50;99.90;;;;;;5075403;28;20215;-71
2023/02/12 12:28:02;;;;;;;9.32;6.80;;;10.50;99.90;;;;;;5072319;28;20244;-72
2023/02/12 12:30:40;;;;;;;10.40;6.95;;;10.50;99.90;;;;;;5080909;28;20569;-71
2023/02/12 12:33:14;;;;;;;9.68;8.05;;;10.40;99.90;;;;;;5071482;28;20705;-71
2023/02/12 12:35:54;;;;;;;10.38;8.52;;;10.30;99.90;;;;;;5074372;28;20673;-70
2023/02/12 12:38:30;;;;;;;11.80;8.38;;;10.20;99.90;;;;;;5070697;28;20227;-71
2023/02/12 12:41:08;;;;;;;13.98;8.45;;;10.20;99.90;;;;;;5070034;28;20253;-71
2023/02/12 12:43:46;;;;;;;10.13;8.15;;;10.20;99.90;;;;;;5071858;28;20196;-71
2023/02/12 12:46:47;;;;;;;11.65;9.13;;;10.20;99.90;;;;;;5070988;28;20252;-71
2023/02/12 12:49:45;;;;;;;9.57;8.32;;;10.10;99.90;;;;;;5072437;28;20278;-72
2023/02/12 12:52:44;;;;;;;13.23;9.30;;;10.40;99.90;;;;;;5073503;28;20284;-72
2023/02/12 12:55:32;;;;;;;15.30;9.70;;;10.40;99.90;;;;;;5068395;28;20255;-72
2023/02/12 12:58:11;;;;;;;11.68;9.30;;;10.30;99.90;;;;;;5074327;28;20228;-71
2023/02/12 13:00:50;;;;;;;15.32;11.05;;;10.40;99.90;;;;;;5075774;28;20227;-71
2023/02/12 13:04:04;;;;;;;14.73;10.85;;;10.50;99.90;;;;;;5072533;28;20247;-70
2023/02/12 13:06:47;;;;;;;13.65;10.65;;;10.60;99.90;;;;;;5069337;28;20635;-72
2023/02/12 13:09:42;;;;;;;11.40;9.40;;;10.70;99.90;;;;;;5069914;28;20193;-70
2023/02/12 13:12:33;;;;;;;13.85;9.20;;;10.70;99.90;;;;;;5069135;28;20560;-73